sensor_id;sensor_type;location;lat;lon;timestamp;P1;durP1;ratioP1;P2;durP2;ratioP2
63114;SDS011;49208;50.874;6.466;2023-12-29T07:02:28;3.53;;;1.10;;
63114;SDS011;49208;50.874;6.466;2023-12-29T07:04:53;3.22;;;1.30;;
63114;SDS011;49208;50.874;6.466;2023-12-29T07:07:19;2.22;;;0.93;;
63114;SDS011;49208;50.874;6.466;2023-12-29T07:09:44;5.55;;;1.35;;
63114;SDS011;49208;50.874;6.466;2023-12-29T07:12:09;3.97;;;0.95;;
63114;SDS011;49208;50.874;6.466;2023-12-29T07:14:35;5.38;;;1.10;;
63114;SDS011;49208;50.874;6.466;2023-12-29T07:17:00;4.05;;;1.00;;
63114;SDS011;49208;50.874;6.466;2023-12-29T07:19:26;5.57;;;1.88;;
63114;SDS011;49208;50.874;6.466;2023-12-29T07:21:58;5.75;;;1.30;;
63114;SDS011;49208;50.874;6.466;2023-12-29T07:24:24;4.38;;;1.23;;
63114;SDS011;49208;50.874;6.466;2023-12-29T07:26:49;6.30;;;2.42;;
63114;SDS011;49208;50.874;6.466;2023-12-29T07:29:15;6.47;;;1.48;;
63114;SDS011;49208;50.874;6.466;2023-12-29T07:31:40;5.13;;;1.83;;
63114;SDS011;49208;50.874;6.466;2023-12-29T07:34:05;5.18;;;1.10;;
63114;SDS011;49208;50.874;6.466;2023-12-29T07:36:31;10.40;;;1.73;;
63114;SDS011;49208;50.874;6.466;2023-12-29T07:38:56;5.57;;;1.33;;
63114;SDS011;49208;50.874;6.466;2023-12-29T07:41:22;10.30;;;1.90;;
63114;SDS011;49208;50.874;6.466;2023-12-29T07:43:47;6.05;;;1.10;;
63114;SDS011;49208;50.874;6.466;2023-12-29T07:46:12;9.88;;;1.80;;
63114;SDS011;49208;50.874;6.466;2023-12-29T07:48:38;7.20;;;1.58;;
63114;SDS011;49208;50.874;6.466;2023-12-29T07:51:05;3.63;;;1.30;;
63114;SDS011;49208;50.874;6.466;2023-12-29T07:53:31;4.40;;;1.40;;
63114;SDS011;49208;50.874;6.466;2023-12-29T07:55:56;4.35;;;1.33;;
63114;SDS011;49208;50.874;6.466;2023-12-29T07:58:21;4.47;;;1.30;;
63114;SDS011;49208;50.874;6.466;2023-12-29T08:00:47;4.32;;;1.60;;
63114;SDS011;49208;50.874;6.466;2023-12-29T08:03:12;5.93;;;1.42;;
63114;SDS011;49208;50.874;6.466;2023-12-29T08:05:38;8.30;;;1.55;;
63114;SDS011;49208;50.874;6.466;2023-12-29T08:08:04;5.70;;;1.60;;
63114;SDS011;49208;50.874;6.466;2023-12-29T08:10:29;5.82;;;1.65;;
63114;SDS011;49208;50.874;6.466;2023-12-29T08:12:56;5.22;;;1.50;;
63114;SDS011;49208;50.874;6.466;2023-12-29T08:15:22;5.32;;;1.70;;
63114;SDS011;49208;50.874;6.466;2023-12-29T08:17:47;6.80;;;1.90;;
63114;SDS011;49208;50.874;6.466;2023-12-29T08:20:12;5.70;;;1.60;;
63114;SDS011;49208;50.874;6.466;2023-12-29T08:22:38;4.63;;;2.35;;
63114;SDS011;49208;50.874;6.466;2023-12-29T08:25:03;4.18;;;1.52;;
63114;SDS011;49208;50.874;6.466;2023-12-29T08:27:29;8.02;;;1.65;;
63114;SDS011;49208;50.874;6.466;2023-12-29T08:29:54;6.38;;;1.20;;
63114;SDS011;49208;50.874;6.466;2023-12-29T08:32:20;4.30;;;1.35;;
63114;SDS011;49208;50.874;6.466;2023-12-29T08:34:46;5.30;;;1.42;;
63114;SDS011;49208;50.874;6.466;2023-12-29T08:37:11;6.75;;;1.85;;
63114;SDS011;49208;50.874;6.466;2023-12-29T08:39:36;6.13;;;1.27;;
63114;SDS011;49208;50.874;6.466;2023-12-29T08:42:02;5.13;;;1.50;;
63114;SDS011;49208;50.874;6.466;2023-12-29T08:44:27;7.50;;;1.27;;
63114;SDS011;49208;50.874;6.466;2023-12-29T08:46:53;6.22;;;1.52;;
63114;SDS011;49208;50.874;6.466;2023-12-29T08:49:18;3.40;;;1.10;;
63114;SDS011;49208;50.874;6.466;2023-12-29T08:51:44;4.57;;;1.38;;
63114;SDS011;49208;50.874;6.466;2023-12-29T08:54:09;3.92;;;1.30;;
63114;SDS011;49208;50.874;6.466;2023-12-29T08:56:34;4.28;;;1.63;;
63114;SDS011;49208;50.874;6.466;2023-12-29T08:59:00;4.75;;;1.00;;
63114;SDS011;49208;50.874;6.466;2023-12-29T09:01:25;10.20;;;1.67;;
63114;SDS011;49208;50.874;6.466;2023-12-29T09:03:51;5.43;;;1.45;;
63114;SDS011;49208;50.874;6.466;2023-12-29T09:06:16;4.63;;;1.50;;
63114;SDS011;49208;50.874;6.466;2023-12-29T09:08:41;2.33;;;0.90;;
63114;SDS011;49208;50.874;6.466;2023-12-29T09:11:07;7.28;;;1.60;;
63114;SDS011;49208;50.874;6.466;2023-12-29T09:13:32;3.95;;;1.00;;
63114;SDS011;49208;50.874;6.466;2023-12-29T09:15:58;4.57;;;0.98;;
63114;SDS011;49208;50.874;6.466;2023-12-29T09:18:24;4.20;;;1.45;;
63114;SDS011;49208;50.874;6.466;2023-12-29T09:20:49;2.35;;;1.00;;
63114;SDS011;49208;50.874;6.466;2023-12-29T09:23:15;4.10;;;1.42;;
63114;SDS011;49208;50.874;6.466;2023-12-29T09:25:40;5.53;;;1.20;;
63114;SDS011;49208;50.874;6.466;2023-12-29T09:28:06;4.10;;;1.00;;
63114;SDS011;49208;50.874;6.466;2023-12-29T09:30:31;5.20;;;0.80;;
63114;SDS011;49208;50.874;6.466;2023-12-29T09:32:57;3.92;;;1.05;;
63114;SDS011;49208;50.874;6.466;2023-12-29T09:35:22;5.28;;;1.10;;
63114;SDS011;49208;50.874;6.466;2023-12-29T09:37:48;3.35;;;0.77;;
63114;SDS011;49208;50.874;6.466;2023-12-29T09:40:16;2.92;;;1.10;;
63114;SDS011;49208;50.874;6.466;2023-12-29T09:42:45;4.05;;;0.80;;
63114;SDS011;49208;50.874;6.466;2023-12-29T09:45:12;5.65;;;0.90;;
63114;SDS011;49208;50.874;6.466;2023-12-29T09:47:38;3.00;;;1.07;;
63114;SDS011;49208;50.874;6.466;2023-12-29T09:50:05;2.70;;;0.82;;
63114;SDS011;49208;50.874;6.466;2023-12-29T09:52:35;3.25;;;0.90;;
63114;SDS011;49208;50.874;6.466;2023-12-29T09:55:02;4.70;;;1.02;;
63114;SDS011;49208;50.874;6.466;2023-12-29T09:57:29;6.28;;;1.48;;
63114;SDS011;49208;50.874;6.466;2023-12-29T09:59:54;3.90;;;1.00;;
63114;SDS011;49208;50.874;6.466;2023-12-29T10:02:21;3.50;;;0.82;;
63114;SDS011;49208;50.874;6.466;2023-12-29T10:04:48;3.53;;;0.82;;
63114;SDS011;49208;50.874;6.466;2023-12-29T10:07:35;2.78;;;1.00;;
63114;SDS011;49208;50.874;6.466;2023-12-29T10:10:03;3.40;;;0.90;;
63114;SDS011;49208;50.874;6.466;2023-12-29T10:12:29;3.85;;;0.90;;
63114;SDS011;49208;50.874;6.466;2023-12-29T10:17:41;2.90;;;0.82;;
63114;SDS011;49208;50.874;6.466;2023-12-29T10:20:33;4.22;;;1.00;;
63114;SDS011;49208;50.874;6.466;2023-12-29T10:23:15;3.47;;;0.98;;
63114;SDS011;49208;50.874;6.466;2023-12-29T10:25:43;5.05;;;1.23;;
63114;SDS011;49208;50.874;6.466;2023-12-29T10:28:09;2.10;;;1.05;;
63114;SDS011;49208;50.874;6.466;2023-12-29T10:30:35;5.45;;;0.82;;
63114;SDS011;49208;50.874;6.466;2023-12-29T10:33:02;2.05;;;1.00;;
63114;SDS011;49208;50.874;6.466;2023-12-29T10:35:29;8.95;;;1.42;;
63114;SDS011;49208;50.874;6.466;2023-12-29T10:38:06;4.07;;;0.85;;
63114;SDS011;49208;50.874;6.466;2023-12-29T10:40:34;5.65;;;1.00;;
63114;SDS011;49208;50.874;6.466;2023-12-29T10:42:59;5.25;;;0.88;;
63114;SDS011;49208;50.874;6.466;2023-12-29T10:45:30;2.78;;;0.57;;
63114;SDS011;49208;50.874;6.466;2023-12-29T10:47:55;4.90;;;0.80;;
63114;SDS011;49208;50.874;6.466;2023-12-29T10:50:21;5.25;;;0.90;;
63114;SDS011;49208;50.874;6.466;2023-12-29T10:52:46;2.58;;;0.80;;
63114;SDS011;49208;50.874;6.466;2023-12-29T10:55:11;4.55;;;0.93;;
63114;SDS011;49208;50.874;6.466;2023-12-29T10:57:39;5.22;;;1.02;;
63114;SDS011;49208;50.874;6.466;2023-12-29T11:00:05;4.28;;;1.30;;
63114;SDS011;49208;50.874;6.466;2023-12-29T11:02:32;4.25;;;0.90;;
63114;SDS011;49208;50.874;6.466;2023-12-29T11:05:05;1.80;;;0.77;;
63114;SDS011;49208;50.874;6.466;2023-12-29T11:07:33;2.15;;;0.88;;
63114;SDS011;49208;50.874;6.466;2023-12-29T11:10:05;3.40;;;0.80;;
63114;SDS011;49208;50.874;6.466;2023-12-29T11:12:33;3.50;;;0.88;;
63114;SDS011;49208;50.874;6.466;2023-12-29T11:15:03;3.28;;;1.00;;
63114;SDS011;49208;50.874;6.466;2023-12-29T11:17:30;3.03;;;0.98;;
63114;SDS011;49208;50.874;6.466;2023-12-29T11:20:00;3.30;;;0.90;;
63114;SDS011;49208;50.874;6.466;2023-12-29T11:22:30;3.00;;;0.70;;
63114;SDS011;49208;50.874;6.466;2023-12-29T11:24:57;2.30;;;1.30;;
63114;SDS011;49208;50.874;6.466;2023-12-29T11:27:30;5.18;;;1.10;;
63114;SDS011;49208;50.874;6.466;2023-12-29T11:29:57;2.88;;;1.02;;
63114;SDS011;49208;50.874;6.466;2023-12-29T11:32:26;3.92;;;1.17;;
63114;SDS011;49208;50.874;6.466;2023-12-29T11:35:00;1.48;;;0.70;;
63114;SDS011;49208;50.874;6.466;2023-12-29T11:40:26;2.92;;;0.85;;
63114;SDS011;49208;50.874;6.466;2023-12-29T11:43:01;3.00;;;1.00;;
63114;SDS011;49208;50.874;6.466;2023-12-29T11:45:31;1.88;;;0.88;;
63114;SDS011;49208;50.874;6.466;2023-12-29T11:47:59;2.92;;;0.82;;
63114;SDS011;49208;50.874;6.466;2023-12-29T11:50:31;2.25;;;0.70;;
63114;SDS011;49208;50.874;6.466;2023-12-29T11:52:58;1.83;;;0.70;;
63114;SDS011;49208;50.874;6.466;2023-12-29T11:55:34;6.43;;;1.23;;
63114;SDS011;49208;50.874;6.466;2023-12-29T11:58:01;2.65;;;0.65;;
63114;SDS011;49208;50.874;6.466;2023-12-29T12:00:47;3.22;;;0.70;;
63114;SDS011;49208;50.874;6.466;2023-12-29T12:03:13;1.92;;;0.65;;
63114;SDS011;49208;50.874;6.466;2023-12-29T12:05:49;4.05;;;0.80;;
63114;SDS011;49208;50.874;6.466;2023-12-29T12:10:57;3.35;;;0.80;;
63114;SDS011;49208;50.874;6.466;2023-12-29T12:13:46;5.35;;;0.90;;
63114;SDS011;49208;50.874;6.466;2023-12-29T12:19:14;2.95;;;0.75;;
63114;SDS011;49208;50.874;6.466;2023-12-29T12:21:40;2.15;;;0.63;;
63114;SDS011;49208;50.874;6.466;2023-12-29T12:24:06;6.43;;;1.85;;
63114;SDS011;49208;50.874;6.466;2023-12-29T12:26:32;1.10;;;0.60;;
63114;SDS011;49208;50.874;6.466;2023-12-29T12:28:58;2.92;;;0.75;;
63114;SDS011;49208;50.874;6.466;2023-12-29T12:31:24;3.22;;;0.60;;
63114;SDS011;49208;50.874;6.466;2023-12-29T12:33:56;1.23;;;0.65;;
63114;SDS011;49208;50.874;6.466;2023-12-29T12:36:22;1.67;;;0.73;;
63114;SDS011;49208;50.874;6.466;2023-12-29T12:38:55;2.30;;;0.90;;
63114;SDS011;49208;50.874;6.466;2023-12-29T12:41:22;2.70;;;0.80;;
63114;SDS011;49208;50.874;6.466;2023-12-29T12:44:10;4.25;;;0.85;;
63114;SDS011;49208;50.874;6.466;2023-12-29T12:46:44;1.73;;;0.50;;
63114;SDS011;49208;50.874;6.466;2023-12-29T12:49:16;3.88;;;1.17;;
63114;SDS011;49208;50.874;6.466;2023-12-29T12:51:43;1.52;;;0.75;;
63114;SDS011;49208;50.874;6.466;2023-12-29T12:54:09;1.95;;;0.50;;
63114;SDS011;49208;50.874;6.466;2023-12-29T12:56:35;4.03;;;0.90;;
63114;SDS011;49208;50.874;6.466;2023-12-29T12:59:02;2.22;;;0.40;;
63114;SDS011;49208;50.874;6.466;2023-12-29T13:01:28;3.17;;;0.60;;
63114;SDS011;49208;50.874;6.466;2023-12-29T13:03:54;4.32;;;0.82;;
63114;SDS011;49208;50.874;6.466;2023-12-29T13:06:23;3.38;;;0.90;;
63114;SDS011;49208;50.874;6.466;2023-12-29T13:08:49;1.75;;;0.70;;
63114;SDS011;49208;50.874;6.466;2023-12-29T13:11:19;3.03;;;1.10;;
63114;SDS011;49208;50.874;6.466;2023-12-29T13:13:50;2.08;;;0.80;;
63114;SDS011;49208;50.874;6.466;2023-12-29T13:16:37;4.18;;;0.80;;
63114;SDS011;49208;50.874;6.466;2023-12-29T13:19:22;1.83;;;0.80;;
63114;SDS011;49208;50.874;6.466;2023-12-29T13:21:51;2.45;;;0.60;;
63114;SDS011;49208;50.874;6.466;2023-12-29T13:24:23;2.60;;;0.80;;
63114;SDS011;49208;50.874;6.466;2023-12-29T13:26:51;3.13;;;0.80;;
63114;SDS011;49208;50.874;6.466;2023-12-29T13:29:23;3.17;;;0.82;;
63114;SDS011;49208;50.874;6.466;2023-12-29T13:31:52;2.78;;;1.05;;
63114;SDS011;49208;50.874;6.466;2023-12-29T13:37:09;2.75;;;0.75;;
63114;SDS011;49208;50.874;6.466;2023-12-29T13:39:45;2.47;;;0.80;;
63114;SDS011;49208;50.874;6.466;2023-12-29T13:42:31;4.20;;;0.90;;
63114;SDS011;49208;50.874;6.466;2023-12-29T13:44:58;3.70;;;1.08;;
63114;SDS011;49208;50.874;6.466;2023-12-29T13:47:25;3.10;;;0.82;;
63114;SDS011;49208;50.874;6.466;2023-12-29T13:49:51;1.52;;;0.70;;
63114;SDS011;49208;50.874;6.466;2023-12-29T13:52:17;1.85;;;0.80;;
63114;SDS011;49208;50.874;6.466;2023-12-29T13:54:44;4.95;;;1.30;;
63114;SDS011;49208;50.874;6.466;2023-12-29T13:57:09;3.05;;;0.95;;
63114;SDS011;49208;50.874;6.466;2023-12-29T13:59:35;3.00;;;1.42;;
63114;SDS011;49208;50.874;6.466;2023-12-29T14:02:35;4.95;;;1.50;;
63114;SDS011;49208;50.874;6.466;2023-12-29T14:07:45;2.08;;;0.70;;
63114;SDS011;49208;50.874;6.466;2023-12-29T14:10:17;4.00;;;1.33;;
63114;SDS011;49208;50.874;6.466;2023-12-29T14:12:43;2.20;;;0.60;;
63114;SDS011;49208;50.874;6.466;2023-12-29T14:15:09;1.85;;;0.70;;
63114;SDS011;49208;50.874;6.466;2023-12-29T14:17:35;1.75;;;0.70;;
63114;SDS011;49208;50.874;6.466;2023-12-29T14:20:03;2.28;;;0.77;;
63114;SDS011;49208;50.874;6.466;2023-12-29T14:22:31;2.03;;;0.77;;
63114;SDS011;49208;50.874;6.466;2023-12-29T14:25:04;1.90;;;0.85;;
63114;SDS011;49208;50.874;6.466;2023-12-29T14:27:30;2.38;;;0.70;;
63114;SDS011;49208;50.874;6.466;2023-12-29T14:29:56;2.15;;;0.70;;
63114;SDS011;49208;50.874;6.466;2023-12-29T14:32:22;1.88;;;0.70;;
63114;SDS011;49208;50.874;6.466;2023-12-29T14:34:49;1.05;;;0.43;;
63114;SDS011;49208;50.874;6.466;2023-12-29T14:37:20;5.45;;;0.77;;
63114;SDS011;49208;50.874;6.466;2023-12-29T14:39:51;1.08;;;0.60;;
63114;SDS011;49208;50.874;6.466;2023-12-29T14:42:17;0.93;;;0.50;;
63114;SDS011;49208;50.874;6.466;2023-12-29T14:44:46;2.05;;;0.60;;
63114;SDS011;49208;50.874;6.466;2023-12-29T14:47:13;2.35;;;0.65;;
63114;SDS011;49208;50.874;6.466;2023-12-29T14:49:39;2.85;;;0.57;;
63114;SDS011;49208;50.874;6.466;2023-12-29T14:52:05;1.73;;;0.60;;
63114;SDS011;49208;50.874;6.466;2023-12-29T14:54:31;1.60;;;0.73;;
63114;SDS011;49208;50.874;6.466;2023-12-29T14:56:56;1.83;;;0.52;;
63114;SDS011;49208;50.874;6.466;2023-12-29T14:59:21;1.15;;;0.45;;
63114;SDS011;49208;50.874;6.466;2023-12-29T15:01:47;3.08;;;0.80;;
63114;SDS011;49208;50.874;6.466;2023-12-29T15:04:12;2.60;;;0.65;;
63114;SDS011;49208;50.874;6.466;2023-12-29T15:06:39;1.52;;;0.47;;
63114;SDS011;49208;50.874;6.466;2023-12-29T15:09:05;1.98;;;0.55;;
63114;SDS011;49208;50.874;6.466;2023-12-29T15:11:32;1.15;;;0.50;;
63114;SDS011;49208;50.874;6.466;2023-12-29T15:13:58;2.40;;;0.50;;
63114;SDS011;49208;50.874;6.466;2023-12-29T15:16:24;1.63;;;0.50;;
63114;SDS011;49208;50.874;6.466;2023-12-29T15:18:49;2.40;;;0.70;;
63114;SDS011;49208;50.874;6.466;2023-12-29T15:21:14;1.83;;;0.73;;
63114;SDS011;49208;50.874;6.466;2023-12-29T15:23:40;3.83;;;0.70;;
63114;SDS011;49208;50.874;6.466;2023-12-29T15:26:05;3.67;;;0.80;;
63114;SDS011;49208;50.874;6.466;2023-12-29T15:28:31;1.90;;;0.77;;
63114;SDS011;49208;50.874;6.466;2023-12-29T15:30:56;1.83;;;0.63;;
63114;SDS011;49208;50.874;6.466;2023-12-29T15:33:21;2.92;;;0.70;;
63114;SDS011;49208;50.874;6.466;2023-12-29T15:35:48;2.75;;;0.70;;
63114;SDS011;49208;50.874;6.466;2023-12-29T15:40:40;2.22;;;0.57;;
63114;SDS011;49208;50.874;6.466;2023-12-29T15:43:05;1.40;;;0.55;;
63114;SDS011;49208;50.874;6.466;2023-12-29T15:45:32;1.67;;;0.70;;
63114;SDS011;49208;50.874;6.466;2023-12-29T15:47:58;1.85;;;0.80;;
63114;SDS011;49208;50.874;6.466;2023-12-29T15:50:24;1.70;;;0.80;;
63114;SDS011;49208;50.874;6.466;2023-12-29T15:52:49;1.20;;;0.57;;
63114;SDS011;49208;50.874;6.466;2023-12-29T15:55:14;5.07;;;0.90;;
63114;SDS011;49208;50.874;6.466;2023-12-29T15:57:40;2.92;;;1.10;;
63114;SDS011;49208;50.874;6.466;2023-12-29T16:00:05;1.80;;;0.63;;
63114;SDS011;49208;50.874;6.466;2023-12-29T16:04:58;1.45;;;0.75;;
63114;SDS011;49208;50.874;6.466;2023-12-29T16:07:24;1.40;;;0.60;;
63114;SDS011;49208;50.874;6.466;2023-12-29T16:09:49;1.42;;;0.60;;
63114;SDS011;49208;50.874;6.466;2023-12-29T16:12:14;4.45;;;0.98;;
63114;SDS011;49208;50.874;6.466;2023-12-29T16:14:39;2.38;;;0.80;;
63114;SDS011;49208;50.874;6.466;2023-12-29T16:17:05;2.58;;;0.85;;
63114;SDS011;49208;50.874;6.466;2023-12-29T16:19:30;1.38;;;0.63;;
63114;SDS011;49208;50.874;6.466;2023-12-29T16:21:56;4.05;;;1.23;;
63114;SDS011;49208;50.874;6.466;2023-12-29T16:24:21;1.77;;;0.75;;
63114;SDS011;49208;50.874;6.466;2023-12-29T16:26:47;4.43;;;1.40;;
63114;SDS011;49208;50.874;6.466;2023-12-29T16:29:12;3.28;;;1.13;;
63114;SDS011;49208;50.874;6.466;2023-12-29T16:31:38;3.25;;;1.58;;
63114;SDS011;49208;50.874;6.466;2023-12-29T16:34:03;3.50;;;1.27;;
63114;SDS011;49208;50.874;6.466;2023-12-29T16:36:29;4.63;;;1.17;;
63114;SDS011;49208;50.874;6.466;2023-12-29T16:38:55;2.42;;;0.90;;
63114;SDS011;49208;50.874;6.466;2023-12-29T16:41:20;1.88;;;0.73;;
63114;SDS011;49208;50.874;6.466;2023-12-29T16:43:46;1.55;;;0.75;;
63114;SDS011;49208;50.874;6.466;2023-12-29T16:46:12;4.47;;;1.15;;
63114;SDS011;49208;50.874;6.466;2023-12-29T16:48:37;3.70;;;0.80;;
63114;SDS011;49208;50.874;6.466;2023-12-29T16:51:03;3.25;;;0.90;;
63114;SDS011;49208;50.874;6.466;2023-12-29T16:53:31;2.30;;;0.85;;
63114;SDS011;49208;50.874;6.466;2023-12-29T16:55:57;2.30;;;0.90;;
63114;SDS011;49208;50.874;6.466;2023-12-29T16:58:22;3.58;;;1.10;;
63114;SDS011;49208;50.874;6.466;2023-12-29T17:00:48;2.70;;;0.93;;
63114;SDS011;49208;50.874;6.466;2023-12-29T17:03:15;4.53;;;1.73;;
63114;SDS011;49208;50.874;6.466;2023-12-29T17:05:41;1.65;;;0.90;;
63114;SDS011;49208;50.874;6.466;2023-12-29T17:08:07;1.73;;;0.73;;
63114;SDS011;49208;50.874;6.466;2023-12-29T17:10:32;3.67;;;1.08;;
63114;SDS011;49208;50.874;6.466;2023-12-29T17:12:58;1.65;;;1.02;;
63114;SDS011;49208;50.874;6.466;2023-12-29T17:15:23;1.75;;;0.80;;
63114;SDS011;49208;50.874;6.466;2023-12-29T17:17:49;2.95;;;0.90;;
63114;SDS011;49208;50.874;6.466;2023-12-29T17:20:14;2.72;;;0.90;;
63114;SDS011;49208;50.874;6.466;2023-12-29T17:22:40;4.15;;;1.00;;
63114;SDS011;49208;50.874;6.466;2023-12-29T17:25:05;5.82;;;1.30;;
63114;SDS011;49208;50.874;6.466;2023-12-29T17:27:31;4.53;;;1.08;;
63114;SDS011;49208;50.874;6.466;2023-12-29T17:29:56;3.00;;;1.10;;
63114;SDS011;49208;50.874;6.466;2023-12-29T17:32:22;3.90;;;1.17;;
63114;SDS011;49208;50.874;6.466;2023-12-29T17:34:48;4.68;;;1.33;;
63114;SDS011;49208;50.874;6.466;2023-12-29T17:37:14;4.28;;;1.10;;
63114;SDS011;49208;50.874;6.466;2023-12-29T17:39:40;3.50;;;1.17;;
63114;SDS011;49208;50.874;6.466;2023-12-29T17:42:05;5.18;;;1.20;;
63114;SDS011;49208;50.874;6.466;2023-12-29T17:44:33;5.22;;;1.48;;
63114;SDS011;49208;50.874;6.466;2023-12-29T17:46:59;4.90;;;1.55;;
63114;SDS011;49208;50.874;6.466;2023-12-29T17:49:24;4.60;;;1.88;;
63114;SDS011;49208;50.874;6.466;2023-12-29T17:51:52;5.25;;;1.23;;
63114;SDS011;49208;50.874;6.466;2023-12-29T17:54:18;5.22;;;1.45;;
63114;SDS011;49208;50.874;6.466;2023-12-29T17:56:43;2.88;;;1.10;;
63114;SDS011;49208;50.874;6.466;2023-12-29T17:59:10;6.90;;;1.30;;
63114;SDS011;49208;50.874;6.466;2023-12-29T18:01:36;5.47;;;1.55;;
63114;SDS011;49208;50.874;6.466;2023-12-29T18:04:01;4.22;;;1.25;;
63114;SDS011;49208;50.874;6.466;2023-12-29T18:06:27;3.63;;;1.13;;
63114;SDS011;49208;50.874;6.466;2023-12-29T18:08:52;7.38;;;1.50;;
63114;SDS011;49208;50.874;6.466;2023-12-29T18:11:20;2.55;;;1.13;;
63114;SDS011;49208;50.874;6.466;2023-12-29T18:13:45;4.40;;;1.55;;
63114;SDS011;49208;50.874;6.466;2023-12-29T18:16:11;5.80;;;1.20;;
63114;SDS011;49208;50.874;6.466;2023-12-29T18:18:37;4.43;;;1.30;;
63114;SDS011;49208;50.874;6.466;2023-12-29T18:21:08;4.32;;;1.58;;
63114;SDS011;49208;50.874;6.466;2023-12-29T18:23:33;4.35;;;1.55;;
63114;SDS011;49208;50.874;6.466;2023-12-29T18:26:02;3.33;;;1.75;;
63114;SDS011;49208;50.874;6.466;2023-12-29T18:28:28;4.22;;;1.50;;
63114;SDS011;49208;50.874;6.466;2023-12-29T18:30:55;6.37;;;1.80;;
63114;SDS011;49208;50.874;6.466;2023-12-29T18:33:21;4.68;;;1.30;;
63114;SDS011;49208;50.874;6.466;2023-12-29T18:35:46;4.63;;;1.60;;
63114;SDS011;49208;50.874;6.466;2023-12-29T18:38:11;5.22;;;1.80;;
63114;SDS011;49208;50.874;6.466;2023-12-29T18:40:37;4.97;;;1.70;;
63114;SDS011;49208;50.874;6.466;2023-12-29T18:43:02;4.60;;;1.27;;
63114;SDS011;49208;50.874;6.466;2023-12-29T18:45:28;5.72;;;1.90;;
63114;SDS011;49208;50.874;6.466;2023-12-29T18:47:53;6.28;;;1.80;;
63114;SDS011;49208;50.874;6.466;2023-12-29T18:50:19;4.78;;;1.70;;
63114;SDS011;49208;50.874;6.466;2023-12-29T18:52:45;4.50;;;1.35;;
63114;SDS011;49208;50.874;6.466;2023-12-29T18:55:10;9.07;;;2.08;;
63114;SDS011;49208;50.874;6.466;2023-12-29T18:57:36;5.55;;;2.00;;
63114;SDS011;49208;50.874;6.466;2023-12-29T19:00:02;5.45;;;2.03;;
63114;SDS011;49208;50.874;6.466;2023-12-29T19:02:30;6.35;;;2.50;;
63114;SDS011;49208;50.874;6.466;2023-12-29T19:04:55;5.50;;;1.45;;
63114;SDS011;49208;50.874;6.466;2023-12-29T19:07:21;5.53;;;1.83;;
63114;SDS011;49208;50.874;6.466;2023-12-29T19:09:47;3.75;;;1.60;;
63114;SDS011;49208;50.874;6.466;2023-12-29T19:12:12;2.97;;;1.20;;
63114;SDS011;49208;50.874;6.466;2023-12-29T19:14:38;3.60;;;1.20;;
63114;SDS011;49208;50.874;6.466;2023-12-29T19:17:07;6.30;;;1.60;;
63114;SDS011;49208;50.874;6.466;2023-12-29T19:19:33;5.30;;;1.30;;
63114;SDS011;49208;50.874;6.466;2023-12-29T19:21:59;4.60;;;1.60;;
63114;SDS011;49208;50.874;6.466;2023-12-29T19:24:24;5.00;;;1.70;;
63114;SDS011;49208;50.874;6.466;2023-12-29T19:26:50;5.88;;;1.77;;
63114;SDS011;49208;50.874;6.466;2023-12-29T19:29:16;4.22;;;1.20;;
63114;SDS011;49208;50.874;6.466;2023-12-29T19:31:43;5.80;;;1.73;;
63114;SDS011;49208;50.874;6.466;2023-12-29T19:34:10;5.93;;;1.40;;
63114;SDS011;49208;50.874;6.466;2023-12-29T19:36:35;1.05;;;0.60;;
63114;SDS011;49208;50.874;6.466;2023-12-29T19:39:01;3.10;;;1.05;;
63114;SDS011;49208;50.874;6.466;2023-12-29T19:41:31;5.10;;;1.75;;
63114;SDS011;49208;50.874;6.466;2023-12-29T19:43:59;3.72;;;1.30;;
63114;SDS011;49208;50.874;6.466;2023-12-29T19:46:24;4.95;;;1.20;;
63114;SDS011;49208;50.874;6.466;2023-12-29T19:48:50;4.28;;;1.65;;
63114;SDS011;49208;50.874;6.466;2023-12-29T19:51:18;4.22;;;1.40;;
63114;SDS011;49208;50.874;6.466;2023-12-29T19:53:45;5.95;;;1.48;;
63114;SDS011;49208;50.874;6.466;2023-12-29T19:58:37;3.50;;;1.50;;
63114;SDS011;49208;50.874;6.466;2023-12-29T20:01:03;5.30;;;1.65;;
63114;SDS011;49208;50.874;6.466;2023-12-29T20:03:29;3.83;;;1.57;;
63114;SDS011;49208;50.874;6.466;2023-12-29T20:05:56;5.10;;;1.70;;
63114;SDS011;49208;50.874;6.466;2023-12-29T20:08:22;8.27;;;2.80;;
63114;SDS011;49208;50.874;6.466;2023-12-29T20:10:47;6.10;;;1.58;;
63114;SDS011;49208;50.874;6.466;2023-12-29T20:13:13;5.53;;;1.60;;
63114;SDS011;49208;50.874;6.466;2023-12-29T20:15:39;5.45;;;1.33;;
63114;SDS011;49208;50.874;6.466;2023-12-29T20:18:05;5.03;;;1.35;;
63114;SDS011;49208;50.874;6.466;2023-12-29T20:20:30;4.28;;;1.13;;
63114;SDS011;49208;50.874;6.466;2023-12-29T20:22:56;3.35;;;0.93;;
63114;SDS011;49208;50.874;6.466;2023-12-29T20:25:22;5.03;;;1.20;;
63114;SDS011;49208;50.874;6.466;2023-12-29T20:27:47;3.83;;;1.73;;
63114;SDS011;49208;50.874;6.466;2023-12-29T20:30:13;3.03;;;0.95;;
63114;SDS011;49208;50.874;6.466;2023-12-29T20:32:39;3.20;;;1.45;;
63114;SDS011;49208;50.874;6.466;2023-12-29T20:35:04;4.82;;;2.00;;
63114;SDS011;49208;50.874;6.466;2023-12-29T20:37:30;4.30;;;1.30;;
63114;SDS011;49208;50.874;6.466;2023-12-29T20:39:55;7.32;;;1.52;;
63114;SDS011;49208;50.874;6.466;2023-12-29T20:42:25;4.95;;;1.35;;
63114;SDS011;49208;50.874;6.466;2023-12-29T20:44:51;7.10;;;1.50;;
63114;SDS011;49208;50.874;6.466;2023-12-29T20:47:16;6.15;;;1.80;;
63114;SDS011;49208;50.874;6.466;2023-12-29T20:49:42;7.45;;;2.08;;
63114;SDS011;49208;50.874;6.466;2023-12-29T20:52:08;4.82;;;1.63;;
63114;SDS011;49208;50.874;6.466;2023-12-29T20:54:33;9.90;;;2.33;;
63114;SDS011;49208;50.874;6.466;2023-12-29T20:57:01;7.38;;;1.80;;
63114;SDS011;49208;50.874;6.466;2023-12-29T20:59:27;9.00;;;2.30;;
63114;SDS011;49208;50.874;6.466;2023-12-29T21:01:55;5.25;;;1.80;;
63114;SDS011;49208;50.874;6.466;2023-12-29T21:04:20;9.07;;;2.33;;
63114;SDS011;49208;50.874;6.466;2023-12-29T21:06:47;8.80;;;1.85;;
63114;SDS011;49208;50.874;6.466;2023-12-29T21:09:12;6.47;;;1.85;;
63114;SDS011;49208;50.874;6.466;2023-12-29T21:11:38;4.60;;;1.60;;
63114;SDS011;49208;50.874;6.466;2023-12-29T21:14:03;6.75;;;2.05;;
63114;SDS011;49208;50.874;6.466;2023-12-29T21:16:29;8.27;;;2.35;;
63114;SDS011;49208;50.874;6.466;2023-12-29T21:18:54;7.65;;;1.83;;
63114;SDS011;49208;50.874;6.466;2023-12-29T21:21:20;7.93;;;1.67;;
63114;SDS011;49208;50.874;6.466;2023-12-29T21:23:46;4.10;;;1.30;;
63114;SDS011;49208;50.874;6.466;2023-12-29T21:26:18;5.97;;;1.20;;
63114;SDS011;49208;50.874;6.466;2023-12-29T21:28:45;5.10;;;1.40;;
63114;SDS011;49208;50.874;6.466;2023-12-29T21:31:14;6.35;;;1.83;;
63114;SDS011;49208;50.874;6.466;2023-12-29T21:33:40;11.02;;;2.28;;
63114;SDS011;49208;50.874;6.466;2023-12-29T21:36:06;9.27;;;2.20;;
63114;SDS011;49208;50.874;6.466;2023-12-29T21:38:32;8.00;;;1.63;;
63114;SDS011;49208;50.874;6.466;2023-12-29T21:40:57;3.47;;;1.55;;
63114;SDS011;49208;50.874;6.466;2023-12-29T21:43:23;5.82;;;1.50;;
63114;SDS011;49208;50.874;6.466;2023-12-29T21:45:48;5.18;;;1.00;;
63114;SDS011;49208;50.874;6.466;2023-12-29T21:48:17;4.30;;;1.10;;
63114;SDS011;49208;50.874;6.466;2023-12-29T21:50:42;3.10;;;0.75;;
63114;SDS011;49208;50.874;6.466;2023-12-29T21:53:09;5.57;;;0.82;;
63114;SDS011;49208;50.874;6.466;2023-12-29T21:55:35;1.65;;;0.43;;
63114;SDS011;49208;50.874;6.466;2023-12-29T21:58:03;3.47;;;0.65;;
63114;SDS011;49208;50.874;6.466;2023-12-29T22:00:28;3.30;;;0.70;;
63114;SDS011;49208;50.874;6.466;2023-12-29T22:02:55;3.85;;;0.70;;
63114;SDS011;49208;50.874;6.466;2023-12-29T22:05:21;3.40;;;0.85;;
63114;SDS011;49208;50.874;6.466;2023-12-29T22:07:46;4.60;;;0.85;;
63114;SDS011;49208;50.874;6.466;2023-12-29T22:10:12;5.45;;;0.82;;
63114;SDS011;49208;50.874;6.466;2023-12-29T22:12:37;4.65;;;0.68;;